Time;durP1;ratioP1;P1;durP2;ratioP2;P2;SDS_P1;SDS_P2;PMS_P1;PMS_P2;Temp;Humidity;BMP_temperature;BMP_pressure;BME280_temperature;BME280_humidity;BME280_pressure;Samples;Min_cycle;Max_cycle;Signal;HPM_P1;HPM_P2
2023/07/11 00:05:00;;;;;;;2.95;0.93;;;30.90;49.70;;;;;;10479374;28;20045;-41
2023/07/11 00:10:02;;;;;;;5.10;1.38;;;30.80;49.70;;;;;;10480805;28;20036;-42
2023/07/11 00:15:08;;;;;;;2.22;1.00;;;30.80;49.80;;;;;;10489443;28;20040;-40
2023/07/11 00:20:13;;;;;;;3.70;1.63;;;30.80;49.80;;;;;;10498054;28;20040;-30
2023/07/11 00:25:15;;;;;;;2.88;1.05;;;30.70;49.90;;;;;;10489134;28;20047;-36
2023/07/11 00:30:17;;;;;;;3.58;1.30;;;30.70;50.00;;;;;;10495088;28;20075;-38
2023/07/11 00:35:21;;;;;;;4.60;1.23;;;30.60;50.00;;;;;;10487892;28;20052;-37
2023/07/11 00:40:23;;;;;;;2.50;0.98;;;30.60;50.10;;;;;;10493976;28;20050;-37
2023/07/11 00:46:01;;;;;;;2.60;1.00;;;30.60;50.10;;;;;;10495065;28;20062;-38
2023/07/11 00:51:06;;;;;;;2.00;0.90;;;30.50;50.20;;;;;;10489251;28;20047;-39
2023/07/11 00:56:11;;;;;;;4.15;1.40;;;30.50;50.20;;;;;;10490648;28;20135;-36
2023/07/11 01:01:14;;;;;;;2.17;0.85;;;30.40;50.20;;;;;;10487749;28;20092;-38
2023/07/11 01:06:22;;;;;;;1.50;0.90;;;30.40;50.30;;;;;;10488674;28;20045;-37
2023/07/11 01:11:26;;;;;;;2.50;1.00;;;30.40;50.30;;;;;;10489615;28;20037;-37
2023/07/11 01:16:28;;;;;;;1.92;0.85;;;30.30;50.30;;;;;;10499134;28;20052;-36
2023/07/11 01:21:32;;;;;;;4.18;0.93;;;30.30;50.40;;;;;;10490488;28;20151;-35
2023/07/11 01:26:34;;;;;;;3.20;0.85;;;30.20;50.40;;;;;;10488724;28;20037;-37
2023/07/11 01:31:36;;;;;;;1.80;1.00;;;30.20;50.40;;;;;;10493199;28;20068;-37
2023/07/11 01:36:39;;;;;;;2.33;0.90;;;30.20;50.40;;;;;;10486262;28;20139;-35
2023/07/11 01:41:41;;;;;;;1.63;0.90;;;30.20;50.50;;;;;;10482132;28;20127;-38
2023/07/11 01:46:43;;;;;;;1.48;1.00;;;30.10;50.40;;;;;;10494858;28;20052;-40
2023/07/11 01:51:47;;;;;;;3.97;1.52;;;30.10;50.40;;;;;;10491721;28;20088;-44
2023/07/11 01:56:49;;;;;;;1.73;0.95;;;30.00;50.40;;;;;;10478098;28;20084;-37
2023/07/11 02:01:51;;;;;;;1.85;0.80;;;30.00;50.40;;;;;;10492751;28;20048;-35
2023/07/11 02:06:55;;;;;;;3.20;1.05;;;30.00;50.40;;;;;;10496821;28;20249;-34
2023/07/11 02:11:57;;;;;;;2.90;0.90;;;29.90;50.50;;;;;;10493472;28;20044;-39
2023/07/11 02:16:59;;;;;;;2.28;1.00;;;29.90;50.50;;;;;;10495588;28;20121;-37
2023/07/11 02:22:02;;;;;;;3.25;1.00;;;29.90;50.60;;;;;;10484369;28;20086;-38
2023/07/11 02:27:04;;;;;;;1.63;1.00;;;29.80;50.50;;;;;;10489119;28;20170;-34
2023/07/11 02:32:07;;;;;;;2.47;1.02;;;29.80;50.50;;;;;;10488286;28;20048;-38
2023/07/11 02:37:10;;;;;;;5.80;1.20;;;29.80;50.60;;;;;;10485975;28;20063;-41
2023/07/11 02:42:12;;;;;;;2.33;0.98;;;29.70;50.60;;;;;;10494100;28;20055;-36
2023/07/11 02:47:13;;;;;;;2.00;1.00;;;29.70;50.60;;;;;;10489563;28;20138;-41
2023/07/11 02:52:17;;;;;;;2.45;1.02;;;29.70;50.60;;;;;;10490267;28;20379;-35
2023/07/11 02:57:19;;;;;;;2.60;1.00;;;29.60;50.60;;;;;;10486755;28;20087;-34
2023/07/11 03:15:29;;;;;;;1.30;1.10;;;29.60;50.10;;;;;;10493464;27;1961121;-34
2023/07/11 03:20:31;;;;;;;4.13;1.20;;;29.50;50.70;;;;;;10521436;28;20072;-38
2023/07/11 03:25:33;;;;;;;3.30;1.15;;;29.40;50.80;;;;;;10520085;28;20082;-37
2023/07/11 03:30:37;;;;;;;4.07;1.45;;;29.40;50.80;;;;;;10522458;28;20036;-39
2023/07/11 03:35:39;;;;;;;2.25;1.33;;;29.40;50.80;;;;;;10523989;28;20087;-42
2023/07/11 03:40:40;;;;;;;4.43;1.52;;;29.40;50.90;;;;;;10519403;28;20127;-40
2023/07/11 03:45:46;;;;;;;3.83;1.02;;;29.30;50.80;;;;;;10512860;28;20535;-35
2023/07/11 03:50:48;;;;;;;2.25;0.93;;;29.30;50.80;;;;;;10518488;28;20121;-39
2023/07/11 03:55:49;;;;;;;2.00;1.00;;;29.30;50.90;;;;;;10523313;28;20139;-35
2023/07/11 04:00:53;;;;;;;2.13;1.00;;;29.30;50.90;;;;;;10528964;28;20577;-39
2023/07/11 04:05:56;;;;;;;3.03;1.02;;;29.20;50.80;;;;;;10529500;28;20409;-42
2023/07/11 04:11:00;;;;;;;1.70;1.05;;;29.20;50.90;;;;;;10516547;28;20049;-35
2023/07/11 04:16:03;;;;;;;3.83;1.30;;;29.20;50.90;;;;;;10517539;28;20435;-36
2023/07/11 04:21:05;;;;;;;2.92;1.27;;;29.20;51.00;;;;;;10510285;28;20262;-39
2023/07/11 04:26:07;;;;;;;2.90;1.00;;;29.20;51.00;;;;;;10478372;28;20094;-37
2023/07/11 04:31:10;;;;;;;3.53;1.30;;;29.20;50.90;;;;;;10486711;28;20048;-37
2023/07/11 04:36:15;;;;;;;2.70;1.27;;;29.10;50.90;;;;;;10486649;28;20119;-37
2023/07/11 04:41:17;;;;;;;3.38;1.42;;;29.10;50.90;;;;;;10491806;28;20122;-33
2023/07/11 04:46:20;;;;;;;3.88;1.35;;;29.10;50.90;;;;;;10492879;28;20079;-35
2023/07/11 04:51:22;;;;;;;4.82;0.98;;;29.10;50.90;;;;;;10478307;28;20489;-37
2023/07/11 04:56:24;;;;;;;3.70;1.02;;;29.10;50.80;;;;;;10483332;28;20102;-37
2023/07/11 05:01:27;;;;;;;4.55;1.35;;;29.10;50.80;;;;;;10488519;28;20566;-41
2023/07/11 05:06:29;;;;;;;2.80;1.02;;;29.10;50.80;;;;;;10484469;28;20119;-36
2023/07/11 05:11:31;;;;;;;3.13;1.30;;;29.10;50.90;;;;;;10472322;28;20732;-37
2023/07/11 05:16:34;;;;;;;3.40;1.15;;;29.10;50.80;;;;;;10473490;28;20128;-37
2023/07/11 05:21:36;;;;;;;3.17;1.05;;;29.10;50.90;;;;;;10474775;28;20106;-39
2023/07/11 05:26:38;;;;;;;3.58;1.30;;;29.10;50.90;;;;;;10465891;28;20128;-35
2023/07/11 05:31:41;;;;;;;2.38;1.20;;;29.10;50.90;;;;;;10474554;28;20512;-34
2023/07/11 05:36:43;;;;;;;2.15;1.00;;;29.10;50.90;;;;;;10486588;28;20053;-42
2023/07/11 05:41:52;;;;;;;3.88;1.10;;;29.10;50.90;;;;;;10462070;28;20144;-37
2023/07/11 05:46:55;;;;;;;2.30;1.00;;;29.10;50.80;;;;;;10476057;28;20045;-39
2023/07/11 05:51:57;;;;;;;4.45;1.10;;;29.10;50.70;;;;;;10488790;28;20044;-36
2023/07/11 05:56:59;;;;;;;1.48;0.90;;;29.10;50.80;;;;;;10494334;28;20091;-36
2023/07/11 06:02:02;;;;;;;4.35;1.13;;;29.10;50.80;;;;;;10482222;28;20076;-40
2023/07/11 06:07:04;;;;;;;2.17;1.30;;;29.10;50.80;;;;;;10479890;28;20119;-35
2023/07/11 06:12:07;;;;;;;2.58;0.80;;;29.20;50.50;;;;;;10480190;28;20520;-38
2023/07/11 06:17:10;;;;;;;2.80;0.98;;;29.20;50.40;;;;;;10483900;28;20068;-37
2023/07/11 06:22:12;;;;;;;2.63;0.75;;;29.10;50.70;;;;;;10482698;28;20052;-35
2023/07/11 06:27:14;;;;;;;2.90;1.17;;;29.20;50.60;;;;;;10478212;28;20545;-37
2023/07/11 06:32:17;;;;;;;3.00;1.25;;;29.20;51.20;;;;;;10467877;28;20141;-38
2023/07/11 06:37:19;;;;;;;3.72;1.05;;;29.20;51.20;;;;;;10472356;28;20052;-41
2023/07/11 06:42:21;;;;;;;2.60;1.25;;;29.10;50.70;;;;;;10480560;28;20052;-40
2023/07/11 06:47:24;;;;;;;2.72;1.00;;;29.10;50.70;;;;;;10485097;28;20094;-38
2023/07/11 06:52:26;;;;;;;4.68;1.42;;;28.80;51.40;;;;;;10467961;28;20128;-35
2023/07/11 06:57:28;;;;;;;9.95;2.38;;;28.60;51.60;;;;;;10476145;28;20763;-37
2023/07/11 07:02:31;;;;;;;8.52;1.55;;;28.00;52.70;;;;;;10467109;28;20052;-38
2023/07/11 07:07:33;;;;;;;9.00;1.00;;;28.10;52.40;;;;;;10468513;28;20080;-35
2023/07/11 07:12:35;;;;;;;7.70;1.10;;;28.20;52.60;;;;;;10468536;28;20512;-37
2023/07/11 07:17:38;;;;;;;4.20;1.50;;;28.10;52.80;;;;;;10474942;28;20140;-37
2023/07/11 07:22:40;;;;;;;3.55;1.20;;;27.50;54.10;;;;;;10474433;28;20045;-35
2023/07/11 07:27:42;;;;;;;2.70;1.40;;;27.50;54.10;;;;;;10462828;28;20040;-37
2023/07/11 07:32:45;;;;;;;7.65;1.60;;;27.10;55.00;;;;;;10460508;28;20138;-41
2023/07/11 07:37:47;;;;;;;4.45;1.38;;;27.40;54.40;;;;;;10473148;28;20063;-39
2023/07/11 07:42:49;;;;;;;4.63;1.30;;;27.70;53.80;;;;;;10468276;28;20128;-42
2023/07/11 07:47:52;;;;;;;4.30;1.42;;;27.70;53.90;;;;;;10487851;28;20083;-39
2023/07/11 07:52:54;;;;;;;6.93;1.73;;;27.20;54.50;;;;;;10497238;28;20083;-41
2023/07/11 07:57:56;;;;;;;7.95;1.73;;;27.10;55.60;;;;;;10483127;28;20160;-37
2023/07/11 08:02:59;;;;;;;10.02;1.27;;;26.80;56.20;;;;;;10485498;28;21863;-35
2023/07/11 08:08:01;;;;;;;7.07;1.67;;;26.80;56.60;;;;;;10493134;28;20071;-37
2023/07/11 08:13:03;;;;;;;7.72;1.77;;;25.90;58.60;;;;;;10478382;28;20142;-36
2023/07/11 08:18:06;;;;;;;5.10;1.38;;;26.40;58.00;;;;;;10482316;28;20533;-34
2023/07/11 08:23:08;;;;;;;7.10;1.80;;;25.90;59.90;;;;;;10493976;28;20538;-38
2023/07/11 08:28:09;;;;;;;9.45;2.33;;;26.10;59.50;;;;;;10484390;28;20351;-38
2023/07/11 08:33:13;;;;;;;6.20;1.33;;;25.80;59.90;;;;;;10478031;28;20168;-35
2023/07/11 08:38:14;;;;;;;5.57;1.95;;;25.80;60.20;;;;;;10491771;28;20131;-31
2023/07/11 08:43:20;;;;;;;5.93;1.52;;;25.60;61.20;;;;;;10483232;28;20086;-37
2023/07/11 08:48:28;;;;;;;6.05;1.60;;;26.20;60.00;;;;;;10481479;28;20121;-38
2023/07/11 08:53:33;;;;;;;7.50;2.20;;;25.70;62.40;;;;;;10516574;28;20052;-37
2023/07/11 08:58:38;;;;;;;9.75;1.45;;;25.70;63.90;;;;;;10482296;28;20064;-40
2023/07/11 09:03:45;;;;;;;4.15;1.20;;;26.70;59.50;;;;;;10482709;28;20066;-37
2023/07/11 09:08:54;;;;;;;5.15;1.23;;;26.70;60.00;;;;;;10484154;28;20478;-35
2023/07/11 09:14:05;;;;;;;3.78;1.08;;;26.70;59.70;;;;;;10475823;28;20056;-38
2023/07/11 09:19:22;;;;;;;7.70;1.50;;;27.00;59.60;;;;;;10476564;28;20047;-36
2023/07/11 09:24:32;;;;;;;4.10;1.15;;;27.30;58.80;;;;;;10474921;28;20044;-39
2023/07/11 09:29:34;;;;;;;4.68;1.20;;;26.50;61.40;;;;;;10477494;28;20456;-35
2023/07/11 09:34:42;;;;;;;4.15;0.95;;;26.20;62.80;;;;;;10475183;28;20079;-36
2023/07/11 09:39:48;;;;;;;4.55;1.40;;;26.70;61.60;;;;;;10474694;28;20068;-34
2023/07/11 09:45:00;;;;;;;4.25;0.82;;;26.40;64.10;;;;;;10478804;28;20071;-35
2023/07/11 09:50:20;;;;;;;6.57;1.02;;;26.50;63.30;;;;;;10491938;28;20045;-36
2023/07/11 09:55:28;;;;;;;5.18;1.10;;;27.10;60.70;;;;;;10492983;28;20106;-35
2023/07/11 10:00:30;;;;;;;5.80;1.30;;;26.50;63.60;;;;;;10490173;28;20377;-35
2023/07/11 10:05:34;;;;;;;2.38;0.90;;;26.00;66.50;;;;;;10490950;28;20117;-41
2023/07/11 10:10:36;;;;;;;2.72;1.02;;;26.00;66.30;;;;;;10493806;28;20079;-37
2023/07/11 10:15:38;;;;;;;1.77;0.75;;;27.10;62.00;;;;;;10480804;28;20052;-34
2023/07/11 10:20:44;;;;;;;5.68;1.00;;;26.70;63.70;;;;;;10472862;28;20041;-40
2023/07/11 10:25:46;;;;;;;1.90;0.75;;;26.20;65.90;;;;;;10477805;28;20094;-35
2023/07/11 10:30:51;;;;;;;4.82;1.05;;;26.30;65.90;;;;;;10472890;28;20058;-34
2023/07/11 10:36:03;;;;;;;5.38;1.20;;;26.50;64.20;;;;;;10477075;28;20036;-40
2023/07/11 10:41:18;;;;;;;4.38;1.45;;;27.00;63.70;;;;;;10495681;28;20043;-41
2023/07/11 10:46:30;;;;;;;2.47;0.80;;;26.60;64.20;;;;;;10491649;28;20633;-41
2023/07/11 10:51:40;;;;;;;7.10;1.88;;;26.40;66.00;;;;;;10492565;28;20045;-41
2023/07/11 10:56:46;;;;;;;5.00;1.52;;;26.60;65.00;;;;;;10490385;28;20056;-42
2023/07/11 11:01:58;;;;;;;3.80;0.77;;;27.30;62.60;;;;;;10476799;28;21044;-38
2023/07/11 11:07:06;;;;;;;4.90;1.33;;;27.60;61.40;;;;;;10477427;28;20048;-35
2023/07/11 11:12:19;;;;;;;5.38;1.08;;;26.50;65.40;;;;;;10472786;28;20048;-35
2023/07/11 11:17:34;;;;;;;6.70;1.42;;;27.20;63.20;;;;;;10483811;28;20041;-41
2023/07/11 11:22:46;;;;;;;1.58;0.82;;;26.30;67.60;;;;;;10469663;28;20125;-39
2023/07/11 11:27:56;;;;;;;8.00;1.55;;;27.30;63.40;;;;;;10483862;28;20053;-36
2023/07/11 11:33:05;;;;;;;5.45;0.95;;;27.10;65.20;;;;;;10480756;28;20133;-35
2023/07/11 11:38:26;;;;;;;4.28;1.40;;;27.30;64.30;;;;;;10482458;28;20079;-39
2023/07/11 11:43:29;;;;;;;2.88;1.20;;;27.10;65.10;;;;;;10480468;28;20084;-40
2023/07/11 11:48:34;;;;;;;5.68;1.52;;;26.90;66.10;;;;;;10486213;28;20045;-39
2023/07/11 11:53:43;;;;;;;8.00;1.88;;;27.30;65.80;;;;;;10491153;28;20102;-35
2023/07/11 11:59:01;;;;;;;4.55;1.23;;;26.90;68.30;;;;;;10471341;28;20452;-37
2023/07/11 12:04:33;;;;;;;6.47;1.38;;;26.20;72.10;;;;;;10474616;28;20057;-41
2023/07/11 12:09:45;;;;;;;7.13;2.28;;;26.00;74.60;;;;;;10489653;28;20066;-43
2023/07/11 12:14:59;;;;;;;5.47;1.00;;;26.50;71.90;;;;;;10474016;28;20488;-42
2023/07/11 12:20:10;;;;;;;3.17;0.90;;;26.30;73.50;;;;;;10480963;28;20136;-37
2023/07/11 12:25:21;;;;;;;6.10;1.23;;;26.70;69.90;;;;;;10481652;28;20123;-35
2023/07/11 12:30:40;;;;;;;3.40;0.95;;;26.80;69.70;;;;;;10479735;28;20471;-34
2023/07/11 12:35:43;;;;;;;1.30;0.77;;;26.90;70.50;;;;;;10492252;28;20166;-40
2023/07/11 12:40:54;;;;;;;7.40;1.23;;;27.50;67.20;;;;;;10487190;28;20048;-37
2023/07/11 12:45:57;;;;;;;3.45;1.35;;;27.30;67.50;;;;;;10485470;28;20071;-36
2023/07/11 12:51:04;;;;;;;3.50;1.30;;;27.00;71.00;;;;;;10474110;28;20051;-35
2023/07/11 12:56:14;;;;;;;6.05;1.15;;;27.00;71.10;;;;;;10485033;28;20047;-37
2023/07/11 13:01:17;;;;;;;3.35;1.10;;;27.40;70.00;;;;;;10479321;28;20085;-35
2023/07/11 13:06:24;;;;;;;2.25;0.80;;;27.30;70.50;;;;;;10474531;28;20132;-39
2023/07/11 13:11:30;;;;;;;3.65;1.17;;;27.90;67.00;;;;;;10486270;28;20144;-38
2023/07/11 13:16:37;;;;;;;6.13;1.52;;;28.50;65.00;;;;;;10491899;28;20067;-35
2023/07/11 13:21:39;;;;;;;4.45;1.05;;;27.90;66.00;;;;;;10495584;28;20810;-35
2023/07/11 13:26:44;;;;;;;6.32;1.52;;;27.80;68.40;;;;;;10484765;28;20072;-38
2023/07/11 13:31:48;;;;;;;3.85;1.08;;;28.00;67.00;;;;;;10463353;28;20088;-38
2023/07/11 13:36:51;;;;;;;3.60;0.90;;;28.10;66.40;;;;;;10479969;28;20151;-35
2023/07/11 13:41:55;;;;;;;3.67;0.98;;;28.00;69.40;;;;;;10497591;28;20044;-43
2023/07/11 13:46:59;;;;;;;5.43;1.15;;;28.30;67.30;;;;;;10499912;28;20136;-34
2023/07/11 13:52:03;;;;;;;6.50;1.30;;;27.90;67.30;;;;;;10496211;28;20087;-40
2023/07/11 13:57:07;;;;;;;3.42;1.00;;;28.30;64.40;;;;;;10484259;28;20143;-38
2023/07/11 14:02:14;;;;;;;5.60;1.73;;;28.70;64.50;;;;;;10487640;28;20060;-34
2023/07/11 14:07:16;;;;;;;5.00;1.20;;;28.40;67.40;;;;;;10478589;28;20062;-37
2023/07/11 14:12:19;;;;;;;5.38;1.20;;;29.00;62.80;;;;;;10470343;28;20098;-35
2023/07/11 14:17:21;;;;;;;4.20;1.33;;;29.10;65.20;;;;;;10475115;28;20544;-38
2023/07/11 14:22:25;;;;;;;2.72;1.25;;;29.70;63.30;;;;;;10466131;28;20044;-39
2023/07/11 14:27:28;;;;;;;5.55;1.23;;;29.20;64.50;;;;;;10491330;28;20071;-36
2023/07/11 14:32:30;;;;;;;3.33;0.70;;;29.30;63.30;;;;;;10478649;28;20071;-35
2023/07/11 14:37:32;;;;;;;3.97;1.15;;;30.10;63.80;;;;;;10472911;28;20070;-38
2023/07/11 14:42:35;;;;;;;2.80;0.95;;;30.70;59.60;;;;;;10474450;28;20044;-38
2023/07/11 14:47:37;;;;;;;5.65;1.02;;;30.80;57.90;;;;;;10486395;28;20420;-41
2023/07/11 14:52:38;;;;;;;7.03;1.30;;;31.00;60.10;;;;;;10481720;28;20055;-39
2023/07/11 14:57:43;;;;;;;4.00;0.80;;;29.80;64.10;;;;;;10484690;28;20087;-36
2023/07/11 15:02:47;;;;;;;3.53;1.42;;;28.80;68.20;;;;;;10480946;28;20485;-39
2023/07/11 15:07:51;;;;;;;1.33;0.75;;;29.30;63.30;;;;;;10474285;28;20153;-35
2023/07/11 15:12:54;;;;;;;4.80;0.80;;;28.80;69.30;;;;;;10475925;28;20151;-36
2023/07/11 15:17:57;;;;;;;2.95;1.00;;;29.40;65.30;;;;;;10477036;28;20041;-39
2023/07/11 15:22:59;;;;;;;5.10;1.33;;;29.40;66.50;;;;;;10478823;28;20463;-39
2023/07/11 15:28:11;;;;;;;2.42;0.90;;;29.00;68.10;;;;;;10478896;28;20068;-39
2023/07/11 15:33:25;;;;;;;4.65;1.00;;;28.70;70.20;;;;;;10488226;28;20098;-37
2023/07/11 15:38:28;;;;;;;1.58;0.70;;;29.30;67.20;;;;;;10471226;28;20066;-37
2023/07/11 15:43:33;;;;;;;9.73;0.88;;;29.80;65.30;;;;;;10486151;28;20132;-37
2023/07/11 15:48:35;;;;;;;4.00;0.75;;;28.80;63.80;;;;;;10481855;28;20051;-36
2023/07/11 15:53:37;;;;;;;5.75;1.00;;;30.30;62.40;;;;;;10481395;28;20131;-41
2023/07/11 15:58:41;;;;;;;3.15;1.10;;;28.60;69.10;;;;;;10484222;28;20048;-35
2023/07/11 16:03:43;;;;;;;5.38;1.77;;;29.90;61.50;;;;;;10474086;28;20138;-41
2023/07/11 16:08:45;;;;;;;3.58;1.00;;;30.20;60.10;;;;;;10472743;28;20044;-39
2023/07/11 16:13:48;;;;;;;4.65;0.95;;;30.30;60.30;;;;;;10446821;28;20105;-39
2023/07/11 16:18:50;;;;;;;1.17;0.57;;;30.50;58.70;;;;;;10429368;28;20123;-35
2023/07/11 16:23:52;;;;;;;2.75;0.70;;;31.50;60.20;;;;;;10430161;28;20128;-37
2023/07/11 16:28:58;;;;;;;2.97;1.10;;;30.50;62.30;;;;;;10434787;28;20107;-42
2023/07/11 16:34:00;;;;;;;4.55;0.77;;;30.40;61.00;;;;;;10430724;28;20041;-38
2023/07/11 16:39:02;;;;;;;1.30;0.50;;;30.70;60.30;;;;;;10434481;28;20049;-43
2023/07/11 16:44:07;;;;;;;3.15;0.90;;;30.70;65.50;;;;;;10422776;28;20223;-39
2023/07/11 16:49:14;;;;;;;2.28;0.73;;;32.10;59.10;;;;;;10437577;28;20148;-38
2023/07/11 16:54:17;;;;;;;2.75;0.90;;;31.30;58.10;;;;;;10425264;28;20060;-40
2023/07/11 16:59:23;;;;;;;4.53;0.90;;;30.60;60.70;;;;;;10430132;28;20068;-38
2023/07/11 17:04:24;;;;;;;3.05;0.80;;;30.00;65.10;;;;;;10437503;28;20041;-37
2023/07/11 17:09:26;;;;;;;2.08;0.57;;;31.10;63.30;;;;;;10428185;28;20104;-36
2023/07/11 17:14:31;;;;;;;2.03;0.60;;;32.20;59.10;;;;;;10460911;28;20152;-40
2023/07/11 17:19:34;;;;;;;4.78;0.75;;;32.30;58.70;;;;;;10484004;28;20044;-37
2023/07/11 17:24:36;;;;;;;1.30;0.60;;;31.20;58.50;;;;;;10474914;28;20048;-35
2023/07/11 17:29:39;;;;;;;4.00;0.60;;;31.80;59.40;;;;;;10487896;28;20472;-41
2023/07/11 17:34:41;;;;;;;1.20;0.52;;;29.80;63.40;;;;;;10493246;28;20151;-43
2023/07/11 17:39:43;;;;;;;4.20;1.17;;;30.60;58.70;;;;;;10478321;28;20111;-38
2023/07/11 17:44:47;;;;;;;1.58;0.40;;;31.00;62.70;;;;;;10485974;28;20158;-38
2023/07/11 17:49:49;;;;;;;1.30;0.50;;;30.20;64.10;;;;;;10470708;28;20084;-39
2023/07/11 17:54:52;;;;;;;0.90;0.70;;;29.90;63.50;;;;;;10480741;28;20040;-41
2023/07/11 17:59:55;;;;;;;1.65;0.63;;;30.00;64.10;;;;;;10487130;28;20505;-40
2023/07/11 18:04:58;;;;;;;0.52;0.40;;;30.70;54.20;;;;;;10482667;28;20060;-38
2023/07/11 18:09:59;;;;;;;6.28;0.70;;;31.10;61.20;;;;;;10470340;28;20420;-39
2023/07/11 18:15:03;;;;;;;2.55;0.80;;;32.00;54.80;;;;;;10464565;28;20049;-39
2023/07/11 18:20:12;;;;;;;1.60;0.40;;;32.40;56.40;;;;;;10458915;28;20049;-36
2023/07/11 18:25:20;;;;;;;2.03;0.65;;;32.50;56.30;;;;;;10481856;28;20109;-41
2023/07/11 18:30:26;;;;;;;0.93;0.40;;;32.80;55.00;;;;;;10490653;28;20066;-42
2023/07/11 18:35:32;;;;;;;3.20;0.77;;;31.40;57.40;;;;;;10481079;28;20098;-35
2023/07/11 18:40:35;;;;;;;2.78;0.70;;;31.80;55.80;;;;;;10491637;28;20531;-37
2023/07/11 18:45:39;;;;;;;1.80;0.70;;;32.20;53.10;;;;;;10492722;28;20111;-35
2023/07/11 18:50:43;;;;;;;1.55;0.45;;;32.70;53.30;;;;;;10474417;28;20429;-39
2023/07/11 18:55:46;;;;;;;1.65;0.70;;;32.30;54.30;;;;;;10481002;28;20091;-37
2023/07/11 19:00:49;;;;;;;2.53;0.73;;;31.90;52.30;;;;;;10484388;28;20068;-45
2023/07/11 19:05:51;;;;;;;1.60;0.68;;;30.50;59.50;;;;;;10481451;28;20516;-39
2023/07/11 19:10:53;;;;;;;2.85;0.73;;;31.00;55.80;;;;;;10480801;28;20037;-38
2023/07/11 19:15:56;;;;;;;2.55;0.73;;;31.40;55.20;;;;;;10480147;28;20151;-40
2023/07/11 19:20:58;;;;;;;1.23;0.90;;;32.00;52.50;;;;;;10473773;28;20440;-40
2023/07/11 19:26:00;;;;;;;2.70;0.98;;;31.60;53.40;;;;;;10465963;28;20551;-39
2023/07/11 19:31:03;;;;;;;3.10;1.02;;;32.00;52.20;;;;;;10479792;28;20046;-37
2023/07/11 19:36:13;;;;;;;1.40;1.05;;;32.00;53.00;;;;;;10481425;28;20428;-43
2023/07/11 19:41:16;;;;;;;3.75;0.88;;;31.90;53.00;;;;;;10461955;28;20611;-41
2023/07/11 19:46:20;;;;;;;1.50;0.75;;;32.30;51.90;;;;;;10469547;28;20110;-40
2023/07/11 19:51:23;;;;;;;3.17;1.23;;;31.80;52.50;;;;;;10475653;28;20548;-39
2023/07/11 19:56:26;;;;;;;6.18;1.70;;;32.20;51.50;;;;;;10495234;28;20083;-41
2023/07/11 20:01:30;;;;;;;3.33;1.30;;;32.00;51.80;;;;;;10481347;28;20045;-41
2023/07/11 20:06:32;;;;;;;7.55;1.58;;;31.20;51.90;;;;;;10477647;28;20041;-39
2023/07/11 20:11:34;;;;;;;8.88;2.10;;;31.80;52.00;;;;;;10478241;28;20056;-42
2023/07/11 20:16:38;;;;;;;6.55;1.52;;;31.70;51.90;;;;;;10488870;28;20040;-41
2023/07/11 20:21:41;;;;;;;9.75;1.73;;;31.50;52.00;;;;;;10484342;28;20097;-42
2023/07/11 20:26:43;;;;;;;4.40;1.17;;;30.90;52.30;;;;;;10488018;28;20063;-41
2023/07/11 20:31:46;;;;;;;4.47;1.50;;;30.00;52.30;;;;;;10477013;28;20052;-38
2023/07/11 20:36:48;;;;;;;3.08;1.10;;;29.80;53.90;;;;;;10477090;28;20057;-38
2023/07/11 20:41:50;;;;;;;4.32;1.05;;;28.90;56.80;;;;;;10468821;28;20044;-37
2023/07/11 20:46:53;;;;;;;4.65;1.20;;;30.60;53.20;;;;;;10480315;28;20105;-40
2023/07/11 20:51:55;;;;;;;3.60;1.10;;;30.10;54.70;;;;;;10470933;28;20101;-37
2023/07/11 20:56:57;;;;;;;3.25;0.90;;;31.00;53.00;;;;;;10474884;28;20071;-41
2023/07/11 21:02:00;;;;;;;3.33;1.48;;;31.00;52.00;;;;;;10484862;28;20086;-38
2023/07/11 21:07:02;;;;;;;3.65;1.00;;;29.90;54.10;;;;;;10494362;28;20056;-37
2023/07/11 21:12:08;;;;;;;2.80;0.93;;;30.20;53.20;;;;;;10504528;28;20347;-38
2023/07/11 21:17:13;;;;;;;4.45;1.48;;;30.60;53.80;;;;;;10495919;28;20057;-40
2023/07/11 21:22:15;;;;;;;2.15;1.08;;;30.20;55.00;;;;;;10485902;28;20117;-41
2023/07/11 21:27:18;;;;;;;3.00;0.90;;;30.70;53.60;;;;;;10485799;28;20535;-44
2023/07/11 21:32:21;;;;;;;2.33;0.82;;;30.20;54.50;;;;;;10482083;28;20099;-39
2023/07/11 21:37:23;;;;;;;3.50;1.08;;;29.20;56.80;;;;;;10482338;28;20094;-40
2023/07/11 21:42:25;;;;;;;3.63;1.02;;;30.20;54.30;;;;;;10483465;28;20036;-35
2023/07/11 21:47:28;;;;;;;2.83;0.93;;;30.30;54.30;;;;;;10468328;28;20052;-40
2023/07/11 21:52:30;;;;;;;3.88;1.63;;;30.40;54.00;;;;;;10491058;28;20068;-38
2023/07/11 21:57:32;;;;;;;2.80;1.00;;;30.50;53.00;;;;;;10478550;28;20542;-35
2023/07/11 22:02:35;;;;;;;2.22;0.80;;;28.90;57.20;;;;;;10490371;28;20132;-40
2023/07/11 22:07:37;;;;;;;2.97;0.98;;;27.80;58.10;;;;;;10470644;28;20124;-37
2023/07/11 22:12:39;;;;;;;4.35;1.38;;;30.20;54.30;;;;;;10472358;28;20143;-31
2023/07/11 22:17:42;;;;;;;2.42;0.90;;;29.50;52.10;;;;;;10470741;28;20049;-37
2023/07/11 22:22:44;;;;;;;2.58;0.93;;;28.90;57.20;;;;;;10475087;28;20540;-42
2023/07/11 22:27:46;;;;;;;3.45;1.10;;;30.20;54.30;;;;;;10472037;28;20083;-39
2023/07/11 22:32:51;;;;;;;2.83;0.70;;;29.60;54.60;;;;;;10468824;28;20068;-40
2023/07/11 22:37:54;;;;;;;4.03;1.10;;;29.90;54.20;;;;;;10474427;28;20044;-40
2023/07/11 22:42:57;;;;;;;10.07;2.17;;;29.80;54.00;;;;;;10477327;28;20050;-42
2023/07/11 22:48:02;;;;;;;7.18;1.30;;;28.40;55.00;;;;;;10478610;28;20709;-39
2023/07/11 22:53:06;;;;;;;4.00;0.98;;;28.80;54.70;;;;;;10477548;28;20543;-39
2023/07/11 22:58:20;;;;;;;3.17;1.30;;;29.10;55.80;;;;;;10467012;28;20131;-42
2023/07/11 23:03:24;;;;;;;3.10;0.98;;;29.60;54.80;;;;;;10477090;28;20124;-36
2023/07/11 23:08:28;;;;;;;5.00;1.73;;;29.20;55.70;;;;;;10474546;28;20048;-41
2023/07/11 23:13:31;;;;;;;6.22;1.52;;;28.00;56.60;;;;;;10469474;28;20055;-37
2023/07/11 23:18:34;;;;;;;8.32;1.40;;;27.30;58.60;;;;;;10470373;28;20136;-37
2023/07/11 23:23:37;;;;;;;6.78;1.40;;;26.30;62.40;;;;;;10462714;28;20829;-37
2023/07/11 23:28:38;;;;;;;5.82;1.67;;;26.00;63.80;;;;;;10475398;28;20044;-38
2023/07/11 23:33:42;;;;;;;8.82;1.42;;;26.40;62.50;;;;;;10485126;28;20044;-42
2023/07/11 23:38:46;;;;;;;5.07;1.27;;;26.90;62.00;;;;;;10494745;28;20052;-42
2023/07/11 23:43:48;;;;;;;4.15;1.20;;;26.90;62.20;;;;;;10483796;28;20052;-35
2023/07/11 23:48:53;;;;;;;3.33;1.15;;;28.30;58.10;;;;;;10483736;28;20044;-38
2023/07/11 23:53:55;;;;;;;7.95;2.08;;;28.00;58.60;;;;;;10488231;28;20453;-36
2023/07/11 23:58:58;;;;;;;4.57;1.35;;;28.30;57.80;;;;;;10491467;28;20056;-35
